sensor_id;sensor_type;location;lat;lon;timestamp;pressure;altitude;pressure_sealevel;temperature;humidity
70930;BME280;58588;48.102;19.682;2023-03-04T00:00:23;99507.06;;;-2.52;100.00
70930;BME280;58588;48.102;19.682;2023-03-04T00:03:25;99512.25;;;-2.50;100.00
70930;BME280;58588;48.102;19.682;2023-03-04T00:06:28;99514.03;;;-2.51;100.00
70930;BME280;58588;48.102;19.682;2023-03-04T00:09:30;99517.94;;;-2.44;100.00
70930;BME280;58588;48.102;19.682;2023-03-04T00:12:32;99510.69;;;-2.02;100.00
70930;BME280;58588;48.102;19.682;2023-03-04T00:15:34;99502.88;;;-1.91;100.00
70930;BME280;58588;48.102;19.682;2023-03-04T00:18:36;99510.47;;;-1.99;100.00
70930;BME280;58588;48.102;19.682;2023-03-04T00:21:40;99511.22;;;-1.97;100.00
70930;BME280;58588;48.102;19.682;2023-03-04T00:24:42;99504.88;;;-1.94;100.00
70930;BME280;58588;48.102;19.682;2023-03-04T00:27:44;99503.09;;;-2.06;100.00
70930;BME280;58588;48.102;19.682;2023-03-04T00:30:46;99500.25;;;-2.03;100.00
70930;BME280;58588;48.102;19.682;2023-03-04T00:33:48;99507.22;;;-2.02;100.00
70930;BME280;58588;48.102;19.682;2023-03-04T00:36:52;99502.78;;;-2.14;100.00
70930;BME280;58588;48.102;19.682;2023-03-04T00:39:54;99504.16;;;-2.22;100.00
70930;BME280;58588;48.102;19.682;2023-03-04T00:42:56;99497.50;;;-2.27;100.00
70930;BME280;58588;48.102;19.682;2023-03-04T00:45:58;99490.31;;;-2.25;100.00
70930;BME280;58588;48.102;19.682;2023-03-04T00:49:00;99486.91;;;-2.40;100.00
70930;BME280;58588;48.102;19.682;2023-03-04T00:52:04;99484.34;;;-2.54;100.00
70930;BME280;58588;48.102;19.682;2023-03-04T00:55:07;99481.47;;;-2.77;100.00
70930;BME280;58588;48.102;19.682;2023-03-04T00:58:09;99483.06;;;-2.74;100.00
70930;BME280;58588;48.102;19.682;2023-03-04T01:01:11;99475.44;;;-2.79;100.00
70930;BME280;58588;48.102;19.682;2023-03-04T01:04:13;99471.22;;;-2.81;100.00
70930;BME280;58588;48.102;19.682;2023-03-04T01:07:17;99478.91;;;-2.91;100.00
70930;BME280;58588;48.102;19.682;2023-03-04T01:10:19;99474.72;;;-2.81;100.00
70930;BME280;58588;48.102;19.682;2023-03-04T01:13:21;99471.97;;;-2.79;100.00
70930;BME280;58588;48.102;19.682;2023-03-04T01:16:23;99468.28;;;-2.77;100.00
70930;BME280;58588;48.102;19.682;2023-03-04T01:19:25;99461.59;;;-2.82;100.00
70930;BME280;58588;48.102;19.682;2023-03-04T01:22:29;99454.47;;;-2.67;100.00
70930;BME280;58588;48.102;19.682;2023-03-04T01:25:32;99439.91;;;-2.73;100.00
70930;BME280;58588;48.102;19.682;2023-03-04T01:28:34;99447.00;;;-2.61;100.00
70930;BME280;58588;48.102;19.682;2023-03-04T01:31:36;99447.19;;;-2.64;100.00
70930;BME280;58588;48.102;19.682;2023-03-04T01:34:38;99438.34;;;-2.76;100.00
70930;BME280;58588;48.102;19.682;2023-03-04T01:37:41;99434.75;;;-2.75;100.00
70930;BME280;58588;48.102;19.682;2023-03-04T01:40:44;99424.72;;;-2.70;100.00
70930;BME280;58588;48.102;19.682;2023-03-04T01:43:46;99431.16;;;-2.61;100.00
70930;BME280;58588;48.102;19.682;2023-03-04T01:46:50;99431.03;;;-2.59;100.00
70930;BME280;58588;48.102;19.682;2023-03-04T01:49:55;99421.03;;;-2.67;100.00
70930;BME280;58588;48.102;19.682;2023-03-04T01:52:59;99431.44;;;-2.78;100.00
70930;BME280;58588;48.102;19.682;2023-03-04T01:56:08;99424.91;;;-2.85;100.00
70930;BME280;58588;48.102;19.682;2023-03-04T01:59:13;99418.53;;;-2.96;100.00
70930;BME280;58588;48.102;19.682;2023-03-04T02:02:15;99420.88;;;-3.04;100.00
70930;BME280;58588;48.102;19.682;2023-03-04T02:05:18;99420.19;;;-3.20;100.00
70930;BME280;58588;48.102;19.682;2023-03-04T02:08:23;99414.56;;;-3.28;100.00
70930;BME280;58588;48.102;19.682;2023-03-04T02:11:26;99419.47;;;-3.36;100.00
70930;BME280;58588;48.102;19.682;2023-03-04T02:14:28;99416.00;;;-3.37;100.00
70930;BME280;58588;48.102;19.682;2023-03-04T02:17:31;99422.78;;;-3.33;100.00
70930;BME280;58588;48.102;19.682;2023-03-04T02:20:37;99421.09;;;-3.34;100.00
70930;BME280;58588;48.102;19.682;2023-03-04T02:23:48;99414.03;;;-3.33;100.00
70930;BME280;58588;48.102;19.682;2023-03-04T02:26:55;99408.66;;;-3.32;100.00
70930;BME280;58588;48.102;19.682;2023-03-04T02:29:57;99401.25;;;-3.39;100.00
70930;BME280;58588;48.102;19.682;2023-03-04T02:32:59;99389.03;;;-3.40;100.00
70930;BME280;58588;48.102;19.682;2023-03-04T02:36:01;99389.47;;;-3.34;100.00
70930;BME280;58588;48.102;19.682;2023-03-04T02:39:07;99379.63;;;-3.44;100.00
70930;BME280;58588;48.102;19.682;2023-03-04T02:42:13;99380.28;;;-3.41;100.00
70930;BME280;58588;48.102;19.682;2023-03-04T02:45:33;99375.94;;;-3.42;100.00
70930;BME280;58588;48.102;19.682;2023-03-04T02:48:36;99375.19;;;-3.44;100.00
70930;BME280;58588;48.102;19.682;2023-03-04T02:51:38;99380.03;;;-3.51;100.00
70930;BME280;58588;48.102;19.682;2023-03-04T02:54:40;99386.09;;;-3.63;100.00
70930;BME280;58588;48.102;19.682;2023-03-04T02:57:43;99380.66;;;-3.74;100.00
70930;BME280;58588;48.102;19.682;2023-03-04T03:00:46;99372.03;;;-3.90;100.00
70930;BME280;58588;48.102;19.682;2023-03-04T03:03:48;99382.56;;;-3.90;100.00
70930;BME280;58588;48.102;19.682;2023-03-04T03:06:50;99371.97;;;-4.03;100.00
70930;BME280;58588;48.102;19.682;2023-03-04T03:09:52;99366.25;;;-4.10;100.00
70930;BME280;58588;48.102;19.682;2023-03-04T03:12:55;99372.09;;;-4.05;100.00
70930;BME280;58588;48.102;19.682;2023-03-04T03:15:57;99370.84;;;-3.99;100.00
70930;BME280;58588;48.102;19.682;2023-03-04T03:18:59;99368.53;;;-4.18;100.00
70930;BME280;58588;48.102;19.682;2023-03-04T03:22:02;99367.25;;;-4.25;100.00
70930;BME280;58588;48.102;19.682;2023-03-04T03:25:05;99363.22;;;-4.31;100.00
70930;BME280;58588;48.102;19.682;2023-03-04T03:28:08;99366.19;;;-4.22;100.00
70930;BME280;58588;48.102;19.682;2023-03-04T03:31:10;99363.91;;;-4.14;100.00
70930;BME280;58588;48.102;19.682;2023-03-04T03:34:12;99363.00;;;-4.27;100.00
70930;BME280;58588;48.102;19.682;2023-03-04T03:37:14;99371.56;;;-4.38;100.00
70930;BME280;58588;48.102;19.682;2023-03-04T03:40:17;99364.53;;;-4.38;100.00
70930;BME280;58588;48.102;19.682;2023-03-04T03:43:20;99354.53;;;-4.33;100.00
70930;BME280;58588;48.102;19.682;2023-03-04T03:46:22;99355.59;;;-4.35;100.00
70930;BME280;58588;48.102;19.682;2023-03-04T03:49:25;99362.72;;;-4.23;100.00
70930;BME280;58588;48.102;19.682;2023-03-04T03:52:27;99358.56;;;-4.27;100.00
70930;BME280;58588;48.102;19.682;2023-03-04T03:55:29;99355.22;;;-4.29;100.00
70930;BME280;58588;48.102;19.682;2023-03-04T03:58:32;99361.81;;;-4.36;100.00
70930;BME280;58588;48.102;19.682;2023-03-04T04:01:34;99367.72;;;-4.47;100.00
70930;BME280;58588;48.102;19.682;2023-03-04T04:04:36;99360.00;;;-4.50;100.00
70930;BME280;58588;48.102;19.682;2023-03-04T04:07:38;99358.31;;;-4.51;100.00
70930;BME280;58588;48.102;19.682;2023-03-04T04:10:41;99361.34;;;-4.43;100.00
70930;BME280;58588;48.102;19.682;2023-03-04T04:13:45;99350.81;;;-4.57;100.00
70930;BME280;58588;48.102;19.682;2023-03-04T04:16:47;99354.47;;;-4.45;100.00
70930;BME280;58588;48.102;19.682;2023-03-04T04:19:49;99353.72;;;-4.47;100.00
70930;BME280;58588;48.102;19.682;2023-03-04T04:22:51;99356.72;;;-4.53;100.00
70930;BME280;58588;48.102;19.682;2023-03-04T04:25:53;99352.97;;;-4.49;100.00
70930;BME280;58588;48.102;19.682;2023-03-04T04:28:57;99348.34;;;-4.46;100.00
70930;BME280;58588;48.102;19.682;2023-03-04T04:31:59;99347.50;;;-4.32;100.00
70930;BME280;58588;48.102;19.682;2023-03-04T04:35:01;99345.25;;;-4.24;100.00
70930;BME280;58588;48.102;19.682;2023-03-04T04:38:03;99339.06;;;-4.37;100.00
70930;BME280;58588;48.102;19.682;2023-03-04T04:41:10;99347.81;;;-4.37;100.00
70930;BME280;58588;48.102;19.682;2023-03-04T04:44:18;99346.13;;;-4.66;100.00
70930;BME280;58588;48.102;19.682;2023-03-04T04:47:20;99341.41;;;-4.75;100.00
70930;BME280;58588;48.102;19.682;2023-03-04T04:50:22;99338.88;;;-4.63;100.00
70930;BME280;58588;48.102;19.682;2023-03-04T04:53:24;99345.66;;;-4.59;100.00
70930;BME280;58588;48.102;19.682;2023-03-04T04:56:27;99342.53;;;-4.51;100.00
70930;BME280;58588;48.102;19.682;2023-03-04T04:59:31;99342.81;;;-4.41;100.00
70930;BME280;58588;48.102;19.682;2023-03-04T05:02:34;99345.25;;;-4.38;100.00
70930;BME280;58588;48.102;19.682;2023-03-04T05:05:36;99337.28;;;-4.37;100.00
70930;BME280;58588;48.102;19.682;2023-03-04T05:08:38;99339.53;;;-4.31;100.00
70930;BME280;58588;48.102;19.682;2023-03-04T05:11:40;99348.81;;;-4.25;100.00
70930;BME280;58588;48.102;19.682;2023-03-04T05:14:44;99337.06;;;-4.19;100.00
70930;BME280;58588;48.102;19.682;2023-03-04T05:17:46;99340.34;;;-4.16;100.00
70930;BME280;58588;48.102;19.682;2023-03-04T05:20:49;99349.97;;;-4.02;100.00
70930;BME280;58588;48.102;19.682;2023-03-04T05:23:52;99345.75;;;-4.05;100.00
70930;BME280;58588;48.102;19.682;2023-03-04T05:26:54;99344.91;;;-4.05;100.00
70930;BME280;58588;48.102;19.682;2023-03-04T05:29:58;99342.00;;;-4.00;100.00
70930;BME280;58588;48.102;19.682;2023-03-04T05:33:00;99348.69;;;-4.09;100.00
70930;BME280;58588;48.102;19.682;2023-03-04T05:36:03;99345.47;;;-4.00;100.00
70930;BME280;58588;48.102;19.682;2023-03-04T05:39:06;99344.25;;;-3.94;100.00
70930;BME280;58588;48.102;19.682;2023-03-04T05:42:08;99338.44;;;-3.99;100.00
70930;BME280;58588;48.102;19.682;2023-03-04T05:45:12;99332.47;;;-3.89;100.00
70930;BME280;58588;48.102;19.682;2023-03-04T05:48:14;99328.22;;;-3.91;100.00
70930;BME280;58588;48.102;19.682;2023-03-04T05:51:16;99341.41;;;-3.91;100.00
70930;BME280;58588;48.102;19.682;2023-03-04T05:54:18;99340.72;;;-3.81;100.00
70930;BME280;58588;48.102;19.682;2023-03-04T05:57:21;99343.69;;;-3.72;100.00
70930;BME280;58588;48.102;19.682;2023-03-04T06:00:24;99348.47;;;-3.65;100.00
70930;BME280;58588;48.102;19.682;2023-03-04T06:03:27;99349.88;;;-3.59;100.00
70930;BME280;58588;48.102;19.682;2023-03-04T06:06:29;99348.69;;;-3.55;100.00
70930;BME280;58588;48.102;19.682;2023-03-04T06:09:32;99349.09;;;-3.61;100.00
70930;BME280;58588;48.102;19.682;2023-03-04T06:12:34;99352.56;;;-3.61;100.00
70930;BME280;58588;48.102;19.682;2023-03-04T06:15:38;99358.09;;;-3.51;100.00
70930;BME280;58588;48.102;19.682;2023-03-04T06:18:40;99351.34;;;-3.55;100.00
70930;BME280;58588;48.102;19.682;2023-03-04T06:21:42;99355.06;;;-3.45;100.00
70930;BME280;58588;48.102;19.682;2023-03-04T06:24:44;99369.69;;;-3.14;100.00
70930;BME280;58588;48.102;19.682;2023-03-04T06:27:47;99364.34;;;-3.00;100.00
70930;BME280;58588;48.102;19.682;2023-03-04T06:30:52;99358.97;;;-2.98;100.00
70930;BME280;58588;48.102;19.682;2023-03-04T06:33:54;99364.13;;;-2.58;100.00
70930;BME280;58588;48.102;19.682;2023-03-04T06:36:56;99362.53;;;-2.35;100.00
70930;BME280;58588;48.102;19.682;2023-03-04T06:39:58;99360.72;;;-2.22;100.00
70930;BME280;58588;48.102;19.682;2023-03-04T06:43:00;99359.31;;;-2.02;100.00
70930;BME280;58588;48.102;19.682;2023-03-04T06:46:04;99363.28;;;-1.84;100.00
70930;BME280;58588;48.102;19.682;2023-03-04T06:49:06;99358.13;;;-1.62;100.00
70930;BME280;58588;48.102;19.682;2023-03-04T06:52:09;99361.03;;;-1.53;100.00
70930;BME280;58588;48.102;19.682;2023-03-04T06:55:12;99366.44;;;-1.31;100.00
70930;BME280;58588;48.102;19.682;2023-03-04T06:58:14;99359.25;;;-1.18;100.00
70930;BME280;58588;48.102;19.682;2023-03-04T07:01:20;99362.72;;;-0.93;100.00
70930;BME280;58588;48.102;19.682;2023-03-04T07:04:23;99371.38;;;-0.80;100.00
70930;BME280;58588;48.102;19.682;2023-03-04T07:07:25;99361.56;;;-0.78;100.00
70930;BME280;58588;48.102;19.682;2023-03-04T07:10:27;99364.09;;;-0.65;100.00
70930;BME280;58588;48.102;19.682;2023-03-04T07:13:31;99352.31;;;-0.39;100.00
70930;BME280;58588;48.102;19.682;2023-03-04T07:16:36;99361.19;;;-0.06;100.00
70930;BME280;58588;48.102;19.682;2023-03-04T07:19:38;99357.69;;;0.16;100.00
70930;BME280;58588;48.102;19.682;2023-03-04T07:22:41;99363.94;;;0.26;100.00
70930;BME280;58588;48.102;19.682;2023-03-04T07:25:43;99358.22;;;0.42;100.00
70930;BME280;58588;48.102;19.682;2023-03-04T07:28:45;99371.56;;;0.08;100.00
70930;BME280;58588;48.102;19.682;2023-03-04T07:31:49;99357.22;;;0.11;100.00
70930;BME280;58588;48.102;19.682;2023-03-04T07:34:51;99355.97;;;0.37;100.00
70930;BME280;58588;48.102;19.682;2023-03-04T07:37:53;99356.50;;;0.52;100.00
70930;BME280;58588;48.102;19.682;2023-03-04T07:40:56;99352.63;;;0.67;100.00
70930;BME280;58588;48.102;19.682;2023-03-04T07:43:58;99338.38;;;0.68;100.00
70930;BME280;58588;48.102;19.682;2023-03-04T07:47:01;99351.41;;;0.92;100.00
70930;BME280;58588;48.102;19.682;2023-03-04T07:50:04;99341.06;;;1.10;100.00
70930;BME280;58588;48.102;19.682;2023-03-04T07:53:06;99344.41;;;1.12;100.00
70930;BME280;58588;48.102;19.682;2023-03-04T07:56:11;99346.56;;;1.39;100.00
70930;BME280;58588;48.102;19.682;2023-03-04T07:59:13;99333.91;;;1.52;100.00
70930;BME280;58588;48.102;19.682;2023-03-04T08:02:17;99325.41;;;1.58;100.00
70930;BME280;58588;48.102;19.682;2023-03-04T08:05:19;99332.56;;;1.98;100.00
70930;BME280;58588;48.102;19.682;2023-03-04T08:08:21;99320.97;;;2.19;100.00
70930;BME280;58588;48.102;19.682;2023-03-04T08:11:23;99322.41;;;2.32;100.00
70930;BME280;58588;48.102;19.682;2023-03-04T08:14:26;99315.41;;;2.51;100.00
70930;BME280;58588;48.102;19.682;2023-03-04T08:17:29;99323.81;;;2.75;97.61
70930;BME280;58588;48.102;19.682;2023-03-04T08:20:32;99324.81;;;2.84;99.48
70930;BME280;58588;48.102;19.682;2023-03-04T08:23:36;99320.31;;;3.04;96.02
70930;BME280;58588;48.102;19.682;2023-03-04T08:26:41;99310.34;;;3.25;94.43
70930;BME280;58588;48.102;19.682;2023-03-04T08:29:43;99307.59;;;3.44;92.61
70930;BME280;58588;48.102;19.682;2023-03-04T08:32:47;99305.84;;;3.72;93.56
70930;BME280;58588;48.102;19.682;2023-03-04T08:35:49;99298.28;;;3.68;88.20
70930;BME280;58588;48.102;19.682;2023-03-04T08:38:51;99296.78;;;3.83;90.64
70930;BME280;58588;48.102;19.682;2023-03-04T08:41:53;99294.75;;;3.95;85.19
70930;BME280;58588;48.102;19.682;2023-03-04T08:44:55;99292.44;;;3.82;83.02
70930;BME280;58588;48.102;19.682;2023-03-04T08:48:05;99286.81;;;4.48;85.98
70930;BME280;58588;48.102;19.682;2023-03-04T08:51:12;99286.81;;;4.48;80.03
70930;BME280;58588;48.102;19.682;2023-03-04T08:54:14;99277.97;;;4.66;79.03
70930;BME280;58588;48.102;19.682;2023-03-04T08:57:16;99278.13;;;4.82;80.22
70930;BME280;58588;48.102;19.682;2023-03-04T09:00:18;99281.72;;;5.17;82.79
70930;BME280;58588;48.102;19.682;2023-03-04T09:03:23;99271.41;;;5.48;83.21
70930;BME280;58588;48.102;19.682;2023-03-04T09:06:25;99277.31;;;5.07;76.83
70930;BME280;58588;48.102;19.682;2023-03-04T09:09:27;99272.31;;;5.04;76.59
70930;BME280;58588;48.102;19.682;2023-03-04T09:12:29;99262.38;;;5.49;76.76
70930;BME280;58588;48.102;19.682;2023-03-04T09:15:32;99256.00;;;5.42;73.32
70930;BME280;58588;48.102;19.682;2023-03-04T09:18:37;99254.63;;;5.72;77.11
70930;BME280;58588;48.102;19.682;2023-03-04T09:21:39;99249.41;;;5.96;74.18
70930;BME280;58588;48.102;19.682;2023-03-04T09:24:41;99246.22;;;5.93;71.72
70930;BME280;58588;48.102;19.682;2023-03-04T09:27:43;99245.31;;;6.34;74.15
70930;BME280;58588;48.102;19.682;2023-03-04T09:30:45;99245.81;;;6.30;70.62
70930;BME280;58588;48.102;19.682;2023-03-04T09:33:50;99245.31;;;6.26;69.10
70930;BME280;58588;48.102;19.682;2023-03-04T09:36:53;99244.53;;;6.66;71.00
70930;BME280;58588;48.102;19.682;2023-03-04T09:39:55;99236.63;;;6.57;67.71
70930;BME280;58588;48.102;19.682;2023-03-04T09:43:00;99232.78;;;6.67;68.47
70930;BME280;58588;48.102;19.682;2023-03-04T09:46:09;99226.22;;;6.94;69.42
70930;BME280;58588;48.102;19.682;2023-03-04T09:49:18;99229.09;;;6.93;68.07
70930;BME280;58588;48.102;19.682;2023-03-04T09:52:29;99221.28;;;7.47;70.86
70930;BME280;58588;48.102;19.682;2023-03-04T09:55:38;99217.09;;;7.36;67.62
70930;BME280;58588;48.102;19.682;2023-03-04T09:58:54;99217.13;;;7.28;67.00
70930;BME280;58588;48.102;19.682;2023-03-04T10:01:59;99218.34;;;7.17;69.05
70930;BME280;58588;48.102;19.682;2023-03-04T10:05:06;99217.78;;;7.30;67.54
70930;BME280;58588;48.102;19.682;2023-03-04T10:11:42;99205.19;;;7.47;66.34
70930;BME280;58588;48.102;19.682;2023-03-04T10:14:48;99206.78;;;7.64;67.62
70930;BME280;58588;48.102;19.682;2023-03-04T10:17:56;99198.47;;;7.43;65.67
70930;BME280;58588;48.102;19.682;2023-03-04T10:21:10;99195.16;;;8.11;66.60
70930;BME280;58588;48.102;19.682;2023-03-04T10:24:17;99194.91;;;8.21;64.22
70930;BME280;58588;48.102;19.682;2023-03-04T10:27:22;99190.59;;;8.80;67.05
70930;BME280;58588;48.102;19.682;2023-03-04T10:30:37;99179.84;;;8.80;65.00
70930;BME280;58588;48.102;19.682;2023-03-04T10:33:41;99182.53;;;8.80;66.02
70930;BME280;58588;48.102;19.682;2023-03-04T10:37:02;99181.38;;;8.60;64.84
70930;BME280;58588;48.102;19.682;2023-03-04T10:40:17;99177.56;;;8.54;62.02
70930;BME280;58588;48.102;19.682;2023-03-04T10:43:20;99179.34;;;8.39;63.46
70930;BME280;58588;48.102;19.682;2023-03-04T10:46:22;99174.84;;;8.31;64.36
70930;BME280;58588;48.102;19.682;2023-03-04T10:49:26;99165.75;;;8.64;65.07
70930;BME280;58588;48.102;19.682;2023-03-04T10:52:32;99152.25;;;9.46;63.87
70930;BME280;58588;48.102;19.682;2023-03-04T10:55:43;99156.97;;;8.99;62.42
70930;BME280;58588;48.102;19.682;2023-03-04T10:58:45;99154.75;;;9.03;61.76
70930;BME280;58588;48.102;19.682;2023-03-04T11:01:49;99144.69;;;8.67;61.82
70930;BME280;58588;48.102;19.682;2023-03-04T11:04:54;99151.16;;;9.25;59.39
70930;BME280;58588;48.102;19.682;2023-03-04T11:07:59;99153.16;;;8.79;57.43
70930;BME280;58588;48.102;19.682;2023-03-04T11:11:01;99144.34;;;8.70;58.15
70930;BME280;58588;48.102;19.682;2023-03-04T11:14:13;99140.94;;;8.91;58.95
70930;BME280;58588;48.102;19.682;2023-03-04T11:17:20;99141.66;;;9.59;60.24
70930;BME280;58588;48.102;19.682;2023-03-04T11:20:28;99124.31;;;9.47;57.08
70930;BME280;58588;48.102;19.682;2023-03-04T11:23:38;99109.44;;;10.02;56.12
70930;BME280;58588;48.102;19.682;2023-03-04T11:26:46;99112.47;;;9.77;53.85
70930;BME280;58588;48.102;19.682;2023-03-04T11:29:53;99107.75;;;9.79;54.48
70930;BME280;58588;48.102;19.682;2023-03-04T11:33:04;99091.16;;;9.97;54.12
70930;BME280;58588;48.102;19.682;2023-03-04T11:36:20;99087.28;;;10.49;55.24
70930;BME280;58588;48.102;19.682;2023-03-04T11:39:33;99086.19;;;10.99;54.35
70930;BME280;58588;48.102;19.682;2023-03-04T11:42:42;99073.63;;;11.20;53.10
70930;BME280;58588;48.102;19.682;2023-03-04T11:46:07;99080.16;;;11.39;50.55
70930;BME280;58588;48.102;19.682;2023-03-04T11:49:32;99057.75;;;10.97;47.75
70930;BME280;58588;48.102;19.682;2023-03-04T11:56:29;99052.00;;;11.61;49.47
70930;BME280;58588;48.102;19.682;2023-03-04T11:59:55;99037.84;;;10.98;50.97
70930;BME280;58588;48.102;19.682;2023-03-04T12:03:22;99037.97;;;11.24;49.15
70930;BME280;58588;48.102;19.682;2023-03-04T12:06:37;99033.03;;;11.35;48.71
70930;BME280;58588;48.102;19.682;2023-03-04T12:09:53;99023.34;;;11.06;49.27
70930;BME280;58588;48.102;19.682;2023-03-04T12:13:24;99036.53;;;10.87;48.42
70930;BME280;58588;48.102;19.682;2023-03-04T12:16:47;99015.81;;;10.53;50.05
70930;BME280;58588;48.102;19.682;2023-03-04T12:20:02;99020.50;;;10.79;49.33
70930;BME280;58588;48.102;19.682;2023-03-04T12:23:28;99035.91;;;10.85;49.43
70930;BME280;58588;48.102;19.682;2023-03-04T12:26:35;99033.22;;;10.51;49.40
70930;BME280;58588;48.102;19.682;2023-03-04T12:29:46;99017.53;;;11.02;50.46
70930;BME280;58588;48.102;19.682;2023-03-04T12:32:56;99014.63;;;11.51;49.09
70930;BME280;58588;48.102;19.682;2023-03-04T12:36:09;99010.50;;;11.08;47.80
70930;BME280;58588;48.102;19.682;2023-03-04T12:39:24;99014.69;;;11.17;47.03
70930;BME280;58588;48.102;19.682;2023-03-04T12:42:36;99009.13;;;11.25;46.94
70930;BME280;58588;48.102;19.682;2023-03-04T12:45:46;98997.94;;;11.28;47.20
70930;BME280;58588;48.102;19.682;2023-03-04T12:52:29;99001.31;;;11.57;45.64
70930;BME280;58588;48.102;19.682;2023-03-04T12:55:37;99002.94;;;11.51;45.71
70930;BME280;58588;48.102;19.682;2023-03-04T12:58:40;98996.16;;;11.75;45.96
70930;BME280;58588;48.102;19.682;2023-03-04T13:01:49;98992.13;;;11.38;46.03
70930;BME280;58588;48.102;19.682;2023-03-04T13:05:02;98988.94;;;11.89;45.69
70930;BME280;58588;48.102;19.682;2023-03-04T13:08:17;98987.41;;;11.53;45.07
70930;BME280;58588;48.102;19.682;2023-03-04T13:11:49;98978.75;;;11.91;44.78
70930;BME280;58588;48.102;19.682;2023-03-04T13:15:15;98976.47;;;11.94;43.96
70930;BME280;58588;48.102;19.682;2023-03-04T13:18:32;98967.50;;;12.27;44.91
70930;BME280;58588;48.102;19.682;2023-03-04T13:21:43;98966.28;;;12.36;43.75
70930;BME280;58588;48.102;19.682;2023-03-04T13:24:47;98965.00;;;11.79;43.26
70930;BME280;58588;48.102;19.682;2023-03-04T13:28:05;98966.28;;;12.16;44.40
70930;BME280;58588;48.102;19.682;2023-03-04T13:31:21;98969.56;;;11.72;43.93
70930;BME280;58588;48.102;19.682;2023-03-04T13:34:47;98969.78;;;11.70;44.52
70930;BME280;58588;48.102;19.682;2023-03-04T13:37:57;98966.84;;;11.52;44.33
70930;BME280;58588;48.102;19.682;2023-03-04T13:41:12;98969.47;;;11.32;46.33
70930;BME280;58588;48.102;19.682;2023-03-04T13:47:51;98961.84;;;10.81;42.48
70930;BME280;58588;48.102;19.682;2023-03-04T13:50:55;98949.59;;;10.85;41.86
70930;BME280;58588;48.102;19.682;2023-03-04T13:54:10;98956.13;;;10.97;42.63
70930;BME280;58588;48.102;19.682;2023-03-04T13:57:18;98941.69;;;11.38;44.51
70930;BME280;58588;48.102;19.682;2023-03-04T14:00:21;98955.13;;;11.12;43.45
70930;BME280;58588;48.102;19.682;2023-03-04T14:03:25;98951.03;;;10.75;43.25
70930;BME280;58588;48.102;19.682;2023-03-04T14:06:30;98949.56;;;10.72;43.51
70930;BME280;58588;48.102;19.682;2023-03-04T14:09:33;98947.34;;;10.89;43.90
70930;BME280;58588;48.102;19.682;2023-03-04T14:12:40;98959.53;;;11.39;44.03
70930;BME280;58588;48.102;19.682;2023-03-04T14:15:53;98950.31;;;11.07;44.74
70930;BME280;58588;48.102;19.682;2023-03-04T14:19:00;98950.28;;;10.53;44.93
70930;BME280;58588;48.102;19.682;2023-03-04T14:22:19;98945.44;;;10.76;45.20
70930;BME280;58588;48.102;19.682;2023-03-04T14:25:24;98943.72;;;10.62;44.92
70930;BME280;58588;48.102;19.682;2023-03-04T14:28:26;98939.06;;;10.90;45.60
70930;BME280;58588;48.102;19.682;2023-03-04T14:31:30;98933.75;;;11.10;45.59
70930;BME280;58588;48.102;19.682;2023-03-04T14:34:36;98921.75;;;11.33;45.07
70930;BME280;58588;48.102;19.682;2023-03-04T14:37:45;98931.75;;;11.52;45.13
70930;BME280;58588;48.102;19.682;2023-03-04T14:40:51;98926.59;;;10.89;44.45
70930;BME280;58588;48.102;19.682;2023-03-04T14:43:59;98926.75;;;11.42;45.20
70930;BME280;58588;48.102;19.682;2023-03-04T14:47:15;98913.84;;;11.24;44.26
70930;BME280;58588;48.102;19.682;2023-03-04T14:50:20;98919.78;;;10.93;44.63
70930;BME280;58588;48.102;19.682;2023-03-04T14:53:26;98896.34;;;11.01;45.07
70930;BME280;58588;48.102;19.682;2023-03-04T14:56:29;98900.34;;;12.89;42.87
70930;BME280;58588;48.102;19.682;2023-03-04T14:59:32;98897.88;;;14.68;39.96
70930;BME280;58588;48.102;19.682;2023-03-04T15:02:37;98902.75;;;14.23;39.56
70930;BME280;58588;48.102;19.682;2023-03-04T15:05:40;98891.66;;;13.81;39.98
70930;BME280;58588;48.102;19.682;2023-03-04T15:08:44;98914.00;;;13.07;41.55
70930;BME280;58588;48.102;19.682;2023-03-04T15:11:49;98899.88;;;12.60;42.93
70930;BME280;58588;48.102;19.682;2023-03-04T15:14:52;98893.72;;;12.26;43.91
70930;BME280;58588;48.102;19.682;2023-03-04T15:18:00;98887.53;;;12.06;43.81
70930;BME280;58588;48.102;19.682;2023-03-04T15:21:04;98872.78;;;11.36;45.00
70930;BME280;58588;48.102;19.682;2023-03-04T15:24:08;98880.44;;;11.19;46.01
70930;BME280;58588;48.102;19.682;2023-03-04T15:27:13;98883.78;;;11.61;45.34
70930;BME280;58588;48.102;19.682;2023-03-04T15:30:18;98861.91;;;11.03;46.05
70930;BME280;58588;48.102;19.682;2023-03-04T15:33:21;98858.44;;;11.35;45.91
70930;BME280;58588;48.102;19.682;2023-03-04T15:36:23;98875.78;;;10.80;46.98
70930;BME280;58588;48.102;19.682;2023-03-04T15:39:28;98860.13;;;9.58;49.10
70930;BME280;58588;48.102;19.682;2023-03-04T15:42:30;98864.47;;;9.31;51.01
70930;BME280;58588;48.102;19.682;2023-03-04T15:45:34;98865.03;;;9.05;52.81
70930;BME280;58588;48.102;19.682;2023-03-04T15:48:37;98859.66;;;8.47;53.62
70930;BME280;58588;48.102;19.682;2023-03-04T15:51:39;98857.59;;;8.49;54.53
70930;BME280;58588;48.102;19.682;2023-03-04T15:54:43;98859.84;;;8.16;54.45
70930;BME280;58588;48.102;19.682;2023-03-04T15:57:47;98862.25;;;8.11;55.23
70930;BME280;58588;48.102;19.682;2023-03-04T16:00:50;98861.13;;;7.91;56.15
70930;BME280;58588;48.102;19.682;2023-03-04T16:03:55;98855.38;;;7.79;56.71
70930;BME280;58588;48.102;19.682;2023-03-04T16:07:07;98874.34;;;7.63;57.07
70930;BME280;58588;48.102;19.682;2023-03-04T16:10:19;98871.72;;;7.55;57.50
70930;BME280;58588;48.102;19.682;2023-03-04T16:13:22;98877.13;;;7.32;57.41
70930;BME280;58588;48.102;19.682;2023-03-04T16:16:24;98870.06;;;7.16;58.80
70930;BME280;58588;48.102;19.682;2023-03-04T16:19:26;98873.50;;;7.02;60.31